sensor_id;sensor_type;location;lat;lon;timestamp;P1;durP1;ratioP1;P2;durP2;ratioP2
15393;SDS011;7795;47.986;11.868;2023-09-19T00:01:05;2.97;;;1.10;;
15393;SDS011;7795;47.986;11.868;2023-09-19T00:03:35;1.50;;;0.80;;
15393;SDS011;7795;47.986;11.868;2023-09-19T00:06:04;3.30;;;0.93;;
15393;SDS011;7795;47.986;11.868;2023-09-19T00:08:30;2.93;;;1.10;;
15393;SDS011;7795;47.986;11.868;2023-09-19T00:10:56;1.27;;;0.90;;
15393;SDS011;7795;47.986;11.868;2023-09-19T00:13:30;1.27;;;1.00;;
15393;SDS011;7795;47.986;11.868;2023-09-19T00:15:56;0.80;;;0.80;;
15393;SDS011;7795;47.986;11.868;2023-09-19T00:18:24;3.27;;;0.87;;
15393;SDS011;7795;47.986;11.868;2023-09-19T00:20:58;1.27;;;0.70;;
15393;SDS011;7795;47.986;11.868;2023-09-19T00:23:23;2.00;;;1.47;;
15393;SDS011;7795;47.986;11.868;2023-09-19T00:25:49;1.83;;;1.63;;
15393;SDS011;7795;47.986;11.868;2023-09-19T00:28:16;2.63;;;1.63;;
15393;SDS011;7795;47.986;11.868;2023-09-19T00:30:43;2.20;;;1.60;;
15393;SDS011;7795;47.986;11.868;2023-09-19T00:33:09;3.00;;;1.50;;
15393;SDS011;7795;47.986;11.868;2023-09-19T00:35:36;1.50;;;1.20;;
15393;SDS011;7795;47.986;11.868;2023-09-19T00:38:03;1.23;;;0.97;;
15393;SDS011;7795;47.986;11.868;2023-09-19T00:40:31;0.87;;;0.70;;
15393;SDS011;7795;47.986;11.868;2023-09-19T00:42:58;1.20;;;0.80;;
15393;SDS011;7795;47.986;11.868;2023-09-19T00:45:25;1.43;;;0.73;;
15393;SDS011;7795;47.986;11.868;2023-09-19T00:47:51;1.03;;;0.70;;
15393;SDS011;7795;47.986;11.868;2023-09-19T00:50:17;3.27;;;0.77;;
15393;SDS011;7795;47.986;11.868;2023-09-19T00:52:44;0.70;;;0.70;;
15393;SDS011;7795;47.986;11.868;2023-09-19T00:55:14;0.93;;;0.60;;
15393;SDS011;7795;47.986;11.868;2023-09-19T00:57:41;2.07;;;0.67;;
15393;SDS011;7795;47.986;11.868;2023-09-19T01:00:07;0.60;;;0.60;;
15393;SDS011;7795;47.986;11.868;2023-09-19T01:02:40;0.70;;;0.70;;
15393;SDS011;7795;47.986;11.868;2023-09-19T01:05:07;2.23;;;0.80;;
15393;SDS011;7795;47.986;11.868;2023-09-19T01:07:34;0.80;;;0.80;;
15393;SDS011;7795;47.986;11.868;2023-09-19T01:10:01;0.80;;;0.70;;
15393;SDS011;7795;47.986;11.868;2023-09-19T01:12:33;1.53;;;1.00;;
15393;SDS011;7795;47.986;11.868;2023-09-19T01:15:10;2.00;;;0.90;;
15393;SDS011;7795;47.986;11.868;2023-09-19T01:17:45;0.80;;;0.60;;
15393;SDS011;7795;47.986;11.868;2023-09-19T01:20:29;1.17;;;0.80;;
15393;SDS011;7795;47.986;11.868;2023-09-19T01:23:05;3.33;;;1.03;;
15393;SDS011;7795;47.986;11.868;2023-09-19T01:28:52;0.93;;;0.80;;
15393;SDS011;7795;47.986;11.868;2023-09-19T01:31:24;1.20;;;0.50;;
15393;SDS011;7795;47.986;11.868;2023-09-19T01:33:54;1.47;;;0.63;;
15393;SDS011;7795;47.986;11.868;2023-09-19T01:36:25;0.70;;;0.60;;
15393;SDS011;7795;47.986;11.868;2023-09-19T01:38:51;0.73;;;0.70;;
15393;SDS011;7795;47.986;11.868;2023-09-19T01:41:24;2.33;;;0.80;;
15393;SDS011;7795;47.986;11.868;2023-09-19T01:43:58;1.30;;;0.80;;
15393;SDS011;7795;47.986;11.868;2023-09-19T01:46:30;0.93;;;0.87;;
15393;SDS011;7795;47.986;11.868;2023-09-19T01:49:03;0.93;;;0.90;;
15393;SDS011;7795;47.986;11.868;2023-09-19T01:51:42;1.70;;;0.80;;
15393;SDS011;7795;47.986;11.868;2023-09-19T01:54:18;0.90;;;0.80;;
15393;SDS011;7795;47.986;11.868;2023-09-19T01:56:53;1.67;;;0.90;;
15393;SDS011;7795;47.986;11.868;2023-09-19T01:59:28;0.70;;;0.70;;
15393;SDS011;7795;47.986;11.868;2023-09-19T02:02:01;1.03;;;0.93;;
15393;SDS011;7795;47.986;11.868;2023-09-19T02:04:30;2.03;;;1.07;;
15393;SDS011;7795;47.986;11.868;2023-09-19T02:06:58;2.80;;;0.90;;
15393;SDS011;7795;47.986;11.868;2023-09-19T02:09:24;1.73;;;1.33;;
15393;SDS011;7795;47.986;11.868;2023-09-19T02:11:50;0.93;;;0.73;;
15393;SDS011;7795;47.986;11.868;2023-09-19T02:14:16;0.70;;;0.70;;
15393;SDS011;7795;47.986;11.868;2023-09-19T02:16:42;2.13;;;1.30;;
15393;SDS011;7795;47.986;11.868;2023-09-19T02:19:09;2.43;;;1.10;;
15393;SDS011;7795;47.986;11.868;2023-09-19T02:21:35;2.80;;;1.17;;
15393;SDS011;7795;47.986;11.868;2023-09-19T02:24:00;2.67;;;1.30;;
15393;SDS011;7795;47.986;11.868;2023-09-19T02:26:28;3.33;;;1.30;;
15393;SDS011;7795;47.986;11.868;2023-09-19T02:28:53;3.33;;;1.30;;
15393;SDS011;7795;47.986;11.868;2023-09-19T02:31:19;2.13;;;0.90;;
15393;SDS011;7795;47.986;11.868;2023-09-19T02:33:45;1.77;;;1.00;;
15393;SDS011;7795;47.986;11.868;2023-09-19T02:36:12;1.03;;;0.93;;
15393;SDS011;7795;47.986;11.868;2023-09-19T02:38:42;2.00;;;1.10;;
15393;SDS011;7795;47.986;11.868;2023-09-19T02:41:08;2.30;;;1.30;;
15393;SDS011;7795;47.986;11.868;2023-09-19T02:43:33;1.73;;;0.87;;
15393;SDS011;7795;47.986;11.868;2023-09-19T02:46:01;3.43;;;1.00;;
15393;SDS011;7795;47.986;11.868;2023-09-19T02:48:28;0.87;;;0.83;;
15393;SDS011;7795;47.986;11.868;2023-09-19T02:50:54;1.10;;;0.90;;
15393;SDS011;7795;47.986;11.868;2023-09-19T02:53:22;1.00;;;0.90;;
15393;SDS011;7795;47.986;11.868;2023-09-19T02:55:49;1.33;;;0.90;;
15393;SDS011;7795;47.986;11.868;2023-09-19T02:58:19;2.27;;;1.30;;
15393;SDS011;7795;47.986;11.868;2023-09-19T03:00:45;1.37;;;1.10;;
15393;SDS011;7795;47.986;11.868;2023-09-19T03:03:14;1.00;;;0.90;;
15393;SDS011;7795;47.986;11.868;2023-09-19T03:05:44;2.20;;;1.23;;
15393;SDS011;7795;47.986;11.868;2023-09-19T03:08:12;1.83;;;1.03;;
15393;SDS011;7795;47.986;11.868;2023-09-19T03:10:41;1.30;;;0.90;;
15393;SDS011;7795;47.986;11.868;2023-09-19T03:13:07;1.30;;;1.00;;
15393;SDS011;7795;47.986;11.868;2023-09-19T03:15:34;2.00;;;1.10;;
15393;SDS011;7795;47.986;11.868;2023-09-19T03:18:03;1.20;;;1.00;;
15393;SDS011;7795;47.986;11.868;2023-09-19T03:20:29;2.30;;;1.00;;
15393;SDS011;7795;47.986;11.868;2023-09-19T03:22:55;2.57;;;1.03;;
15393;SDS011;7795;47.986;11.868;2023-09-19T03:25:22;1.33;;;1.00;;
15393;SDS011;7795;47.986;11.868;2023-09-19T03:27:49;1.10;;;0.93;;
15393;SDS011;7795;47.986;11.868;2023-09-19T03:30:15;1.20;;;1.10;;
15393;SDS011;7795;47.986;11.868;2023-09-19T03:32:45;2.33;;;1.93;;
15393;SDS011;7795;47.986;11.868;2023-09-19T03:35:11;2.77;;;1.93;;
15393;SDS011;7795;47.986;11.868;2023-09-19T03:37:39;2.87;;;2.07;;
15393;SDS011;7795;47.986;11.868;2023-09-19T03:40:05;2.50;;;1.83;;
15393;SDS011;7795;47.986;11.868;2023-09-19T03:42:32;2.60;;;1.60;;
15393;SDS011;7795;47.986;11.868;2023-09-19T03:45:02;1.73;;;1.20;;
15393;SDS011;7795;47.986;11.868;2023-09-19T03:47:28;1.80;;;1.53;;
15393;SDS011;7795;47.986;11.868;2023-09-19T03:49:54;3.00;;;1.40;;
15393;SDS011;7795;47.986;11.868;2023-09-19T03:52:20;3.30;;;1.63;;
15393;SDS011;7795;47.986;11.868;2023-09-19T03:54:45;2.13;;;1.00;;
15393;SDS011;7795;47.986;11.868;2023-09-19T03:57:11;2.67;;;1.43;;
15393;SDS011;7795;47.986;11.868;2023-09-19T03:59:40;1.67;;;1.10;;
15393;SDS011;7795;47.986;11.868;2023-09-19T04:02:09;1.07;;;0.97;;
15393;SDS011;7795;47.986;11.868;2023-09-19T04:04:46;1.40;;;1.13;;
15393;SDS011;7795;47.986;11.868;2023-09-19T04:07:12;1.00;;;0.90;;
15393;SDS011;7795;47.986;11.868;2023-09-19T04:09:38;3.33;;;1.37;;
15393;SDS011;7795;47.986;11.868;2023-09-19T04:12:04;1.70;;;1.17;;
15393;SDS011;7795;47.986;11.868;2023-09-19T04:14:31;1.53;;;0.83;;
15393;SDS011;7795;47.986;11.868;2023-09-19T04:16:56;2.10;;;1.30;;
15393;SDS011;7795;47.986;11.868;2023-09-19T04:19:23;1.00;;;0.90;;
15393;SDS011;7795;47.986;11.868;2023-09-19T04:21:49;1.10;;;1.00;;
15393;SDS011;7795;47.986;11.868;2023-09-19T04:24:15;1.30;;;1.20;;
15393;SDS011;7795;47.986;11.868;2023-09-19T04:26:41;1.37;;;1.07;;
15393;SDS011;7795;47.986;11.868;2023-09-19T04:29:07;1.97;;;1.07;;
15393;SDS011;7795;47.986;11.868;2023-09-19T04:31:36;3.10;;;1.03;;
15393;SDS011;7795;47.986;11.868;2023-09-19T04:34:03;1.23;;;0.97;;
15393;SDS011;7795;47.986;11.868;2023-09-19T04:36:30;0.90;;;0.80;;
15393;SDS011;7795;47.986;11.868;2023-09-19T04:38:56;1.33;;;1.10;;
15393;SDS011;7795;47.986;11.868;2023-09-19T04:41:22;1.43;;;1.00;;
15393;SDS011;7795;47.986;11.868;2023-09-19T04:43:49;1.97;;;1.30;;
15393;SDS011;7795;47.986;11.868;2023-09-19T04:46:15;1.53;;;1.27;;
15393;SDS011;7795;47.986;11.868;2023-09-19T04:48:42;1.20;;;1.10;;
15393;SDS011;7795;47.986;11.868;2023-09-19T04:51:08;1.70;;;1.20;;
15393;SDS011;7795;47.986;11.868;2023-09-19T04:53:37;1.43;;;1.20;;
15393;SDS011;7795;47.986;11.868;2023-09-19T04:56:02;1.30;;;1.10;;
15393;SDS011;7795;47.986;11.868;2023-09-19T04:58:28;1.50;;;1.40;;
15393;SDS011;7795;47.986;11.868;2023-09-19T05:00:54;2.37;;;1.17;;
15393;SDS011;7795;47.986;11.868;2023-09-19T05:03:21;1.17;;;1.07;;
15393;SDS011;7795;47.986;11.868;2023-09-19T05:05:47;1.30;;;1.20;;
15393;SDS011;7795;47.986;11.868;2023-09-19T05:08:13;1.60;;;1.43;;
15393;SDS011;7795;47.986;11.868;2023-09-19T05:10:41;3.17;;;1.10;;
15393;SDS011;7795;47.986;11.868;2023-09-19T05:13:07;1.20;;;1.00;;
15393;SDS011;7795;47.986;11.868;2023-09-19T05:15:33;1.73;;;1.10;;
15393;SDS011;7795;47.986;11.868;2023-09-19T05:18:00;2.50;;;1.50;;
15393;SDS011;7795;47.986;11.868;2023-09-19T05:20:26;2.23;;;1.20;;
15393;SDS011;7795;47.986;11.868;2023-09-19T05:22:59;2.67;;;1.30;;
15393;SDS011;7795;47.986;11.868;2023-09-19T05:25:28;1.40;;;1.00;;
15393;SDS011;7795;47.986;11.868;2023-09-19T05:27:56;1.77;;;0.93;;
15393;SDS011;7795;47.986;11.868;2023-09-19T05:30:22;1.53;;;1.30;;
15393;SDS011;7795;47.986;11.868;2023-09-19T05:32:48;1.30;;;1.00;;
15393;SDS011;7795;47.986;11.868;2023-09-19T05:35:14;1.73;;;0.93;;
15393;SDS011;7795;47.986;11.868;2023-09-19T05:37:40;2.13;;;0.90;;
15393;SDS011;7795;47.986;11.868;2023-09-19T05:40:06;1.20;;;0.87;;
15393;SDS011;7795;47.986;11.868;2023-09-19T05:42:34;1.10;;;0.93;;
15393;SDS011;7795;47.986;11.868;2023-09-19T05:45:01;1.77;;;1.03;;
15393;SDS011;7795;47.986;11.868;2023-09-19T05:47:28;1.90;;;1.00;;
15393;SDS011;7795;47.986;11.868;2023-09-19T05:49:54;1.67;;;1.03;;
15393;SDS011;7795;47.986;11.868;2023-09-19T05:52:19;1.70;;;0.97;;
15393;SDS011;7795;47.986;11.868;2023-09-19T05:54:47;1.57;;;0.80;;
15393;SDS011;7795;47.986;11.868;2023-09-19T05:57:14;1.80;;;1.20;;
15393;SDS011;7795;47.986;11.868;2023-09-19T05:59:40;1.90;;;1.03;;
15393;SDS011;7795;47.986;11.868;2023-09-19T06:02:09;1.03;;;0.80;;
15393;SDS011;7795;47.986;11.868;2023-09-19T06:04:36;2.23;;;1.00;;
15393;SDS011;7795;47.986;11.868;2023-09-19T06:07:05;1.03;;;0.90;;
15393;SDS011;7795;47.986;11.868;2023-09-19T06:09:31;2.60;;;0.83;;
15393;SDS011;7795;47.986;11.868;2023-09-19T06:11:57;2.07;;;1.30;;
15393;SDS011;7795;47.986;11.868;2023-09-19T06:14:23;2.07;;;1.00;;
15393;SDS011;7795;47.986;11.868;2023-09-19T06:16:49;1.17;;;0.90;;
15393;SDS011;7795;47.986;11.868;2023-09-19T06:19:16;1.47;;;1.20;;
15393;SDS011;7795;47.986;11.868;2023-09-19T06:21:42;2.20;;;1.30;;
15393;SDS011;7795;47.986;11.868;2023-09-19T06:24:10;4.50;;;1.17;;
15393;SDS011;7795;47.986;11.868;2023-09-19T06:26:36;2.33;;;1.10;;
15393;SDS011;7795;47.986;11.868;2023-09-19T06:29:02;3.43;;;1.17;;
15393;SDS011;7795;47.986;11.868;2023-09-19T06:31:29;6.70;;;1.23;;
15393;SDS011;7795;47.986;11.868;2023-09-19T06:33:56;1.80;;;1.17;;
15393;SDS011;7795;47.986;11.868;2023-09-19T06:36:23;4.73;;;1.20;;
15393;SDS011;7795;47.986;11.868;2023-09-19T06:38:49;2.23;;;1.10;;
15393;SDS011;7795;47.986;11.868;2023-09-19T06:41:16;2.27;;;0.90;;
15393;SDS011;7795;47.986;11.868;2023-09-19T06:43:42;3.67;;;1.03;;
15393;SDS011;7795;47.986;11.868;2023-09-19T06:46:08;4.27;;;1.00;;
15393;SDS011;7795;47.986;11.868;2023-09-19T06:48:34;3.07;;;0.90;;
15393;SDS011;7795;47.986;11.868;2023-09-19T06:51:01;1.83;;;1.00;;
15393;SDS011;7795;47.986;11.868;2023-09-19T06:53:31;2.20;;;0.83;;
15393;SDS011;7795;47.986;11.868;2023-09-19T06:55:57;2.03;;;1.10;;
15393;SDS011;7795;47.986;11.868;2023-09-19T06:58:23;0.70;;;0.70;;
15393;SDS011;7795;47.986;11.868;2023-09-19T07:00:48;1.73;;;1.00;;
15393;SDS011;7795;47.986;11.868;2023-09-19T07:03:15;2.03;;;0.57;;
15393;SDS011;7795;47.986;11.868;2023-09-19T07:05:43;1.63;;;1.10;;
15393;SDS011;7795;47.986;11.868;2023-09-19T07:08:09;1.47;;;1.23;;
15393;SDS011;7795;47.986;11.868;2023-09-19T07:10:38;1.50;;;1.07;;
15393;SDS011;7795;47.986;11.868;2023-09-19T07:13:06;2.90;;;0.90;;
15393;SDS011;7795;47.986;11.868;2023-09-19T07:15:37;2.50;;;0.90;;
15393;SDS011;7795;47.986;11.868;2023-09-19T07:18:06;1.80;;;0.87;;
15393;SDS011;7795;47.986;11.868;2023-09-19T07:20:36;1.20;;;0.90;;
15393;SDS011;7795;47.986;11.868;2023-09-19T07:23:03;1.37;;;1.03;;
15393;SDS011;7795;47.986;11.868;2023-09-19T07:25:29;2.30;;;1.10;;
15393;SDS011;7795;47.986;11.868;2023-09-19T07:27:57;1.40;;;0.90;;
15393;SDS011;7795;47.986;11.868;2023-09-19T07:30:26;2.00;;;0.90;;
15393;SDS011;7795;47.986;11.868;2023-09-19T07:32:52;1.43;;;0.80;;
15393;SDS011;7795;47.986;11.868;2023-09-19T07:35:18;1.90;;;0.90;;
15393;SDS011;7795;47.986;11.868;2023-09-19T07:37:47;1.97;;;0.80;;
15393;SDS011;7795;47.986;11.868;2023-09-19T07:40:14;2.70;;;1.10;;
15393;SDS011;7795;47.986;11.868;2023-09-19T07:42:40;1.60;;;0.90;;
15393;SDS011;7795;47.986;11.868;2023-09-19T07:45:07;4.57;;;1.00;;
15393;SDS011;7795;47.986;11.868;2023-09-19T07:47:34;1.30;;;0.90;;
15393;SDS011;7795;47.986;11.868;2023-09-19T07:50:01;2.47;;;0.90;;
15393;SDS011;7795;47.986;11.868;2023-09-19T07:52:27;2.07;;;1.03;;
15393;SDS011;7795;47.986;11.868;2023-09-19T07:54:54;1.90;;;0.80;;
15393;SDS011;7795;47.986;11.868;2023-09-19T07:57:22;1.63;;;0.77;;
15393;SDS011;7795;47.986;11.868;2023-09-19T07:59:48;5.53;;;1.13;;
15393;SDS011;7795;47.986;11.868;2023-09-19T08:02:15;2.50;;;0.80;;
15393;SDS011;7795;47.986;11.868;2023-09-19T08:04:41;2.17;;;0.90;;
15393;SDS011;7795;47.986;11.868;2023-09-19T08:07:07;1.43;;;0.53;;
15393;SDS011;7795;47.986;11.868;2023-09-19T08:09:33;1.70;;;0.97;;
15393;SDS011;7795;47.986;11.868;2023-09-19T08:12:00;1.57;;;1.00;;
15393;SDS011;7795;47.986;11.868;2023-09-19T08:14:30;1.37;;;1.00;;
15393;SDS011;7795;47.986;11.868;2023-09-19T08:16:56;1.73;;;0.67;;
15393;SDS011;7795;47.986;11.868;2023-09-19T08:19:24;2.47;;;0.90;;
15393;SDS011;7795;47.986;11.868;2023-09-19T08:21:53;1.30;;;0.80;;
15393;SDS011;7795;47.986;11.868;2023-09-19T08:24:20;0.73;;;0.60;;
15393;SDS011;7795;47.986;11.868;2023-09-19T08:26:46;1.20;;;0.90;;
15393;SDS011;7795;47.986;11.868;2023-09-19T08:29:12;1.30;;;0.90;;
15393;SDS011;7795;47.986;11.868;2023-09-19T08:31:38;1.37;;;0.70;;
15393;SDS011;7795;47.986;11.868;2023-09-19T08:34:03;1.30;;;0.60;;
15393;SDS011;7795;47.986;11.868;2023-09-19T08:36:31;2.33;;;0.90;;
15393;SDS011;7795;47.986;11.868;2023-09-19T08:38:57;3.33;;;0.90;;
15393;SDS011;7795;47.986;11.868;2023-09-19T08:41:22;1.57;;;0.80;;
15393;SDS011;7795;47.986;11.868;2023-09-19T08:43:48;1.73;;;0.63;;
15393;SDS011;7795;47.986;11.868;2023-09-19T08:46:16;1.90;;;0.90;;
15393;SDS011;7795;47.986;11.868;2023-09-19T08:48:45;3.37;;;0.87;;
15393;SDS011;7795;47.986;11.868;2023-09-19T08:51:18;2.43;;;0.93;;
15393;SDS011;7795;47.986;11.868;2023-09-19T08:53:50;1.40;;;0.60;;
15393;SDS011;7795;47.986;11.868;2023-09-19T08:56:19;7.50;;;0.90;;
15393;SDS011;7795;47.986;11.868;2023-09-19T08:58:48;0.80;;;0.70;;
15393;SDS011;7795;47.986;11.868;2023-09-19T09:01:18;1.03;;;0.87;;
15393;SDS011;7795;47.986;11.868;2023-09-19T09:03:49;1.20;;;0.87;;
15393;SDS011;7795;47.986;11.868;2023-09-19T09:06:17;1.23;;;0.60;;
15393;SDS011;7795;47.986;11.868;2023-09-19T09:08:45;2.00;;;0.77;;
15393;SDS011;7795;47.986;11.868;2023-09-19T09:11:14;1.53;;;0.80;;
15393;SDS011;7795;47.986;11.868;2023-09-19T09:13:41;0.80;;;0.50;;
15393;SDS011;7795;47.986;11.868;2023-09-19T09:16:09;1.73;;;0.70;;
15393;SDS011;7795;47.986;11.868;2023-09-19T09:18:35;1.47;;;0.70;;
15393;SDS011;7795;47.986;11.868;2023-09-19T09:21:01;0.97;;;0.60;;
15393;SDS011;7795;47.986;11.868;2023-09-19T09:23:29;1.70;;;0.60;;
15393;SDS011;7795;47.986;11.868;2023-09-19T09:25:57;1.40;;;0.67;;
15393;SDS011;7795;47.986;11.868;2023-09-19T09:28:35;1.47;;;0.77;;
15393;SDS011;7795;47.986;11.868;2023-09-19T09:31:11;4.10;;;1.13;;
15393;SDS011;7795;47.986;11.868;2023-09-19T09:33:52;1.00;;;0.60;;
15393;SDS011;7795;47.986;11.868;2023-09-19T09:36:19;3.10;;;0.90;;
15393;SDS011;7795;47.986;11.868;2023-09-19T09:38:59;1.60;;;0.70;;
15393;SDS011;7795;47.986;11.868;2023-09-19T09:41:40;1.63;;;0.70;;
15393;SDS011;7795;47.986;11.868;2023-09-19T09:44:13;1.40;;;0.90;;
15393;SDS011;7795;47.986;11.868;2023-09-19T09:46:42;2.03;;;1.00;;
15393;SDS011;7795;47.986;11.868;2023-09-19T09:49:22;1.33;;;0.77;;
15393;SDS011;7795;47.986;11.868;2023-09-19T09:52:00;1.17;;;1.07;;
15393;SDS011;7795;47.986;11.868;2023-09-19T09:54:30;2.90;;;0.87;;
15393;SDS011;7795;47.986;11.868;2023-09-19T09:57:06;1.67;;;0.70;;
15393;SDS011;7795;47.986;11.868;2023-09-19T09:59:52;2.53;;;1.17;;
15393;SDS011;7795;47.986;11.868;2023-09-19T10:02:19;1.27;;;0.63;;
15393;SDS011;7795;47.986;11.868;2023-09-19T10:04:51;4.00;;;1.00;;
15393;SDS011;7795;47.986;11.868;2023-09-19T10:07:26;1.98;;;0.73;;
15393;SDS011;7795;47.986;11.868;2023-09-19T10:09:58;1.20;;;0.80;;
15393;SDS011;7795;47.986;11.868;2023-09-19T10:12:31;1.17;;;0.70;;
15393;SDS011;7795;47.986;11.868;2023-09-19T10:15:01;1.60;;;0.63;;
15393;SDS011;7795;47.986;11.868;2023-09-19T10:17:32;0.93;;;0.70;;
15393;SDS011;7795;47.986;11.868;2023-09-19T10:20:01;1.27;;;0.90;;
15393;SDS011;7795;47.986;11.868;2023-09-19T10:22:44;0.97;;;0.60;;
15393;SDS011;7795;47.986;11.868;2023-09-19T10:25:22;1.27;;;0.60;;
15393;SDS011;7795;47.986;11.868;2023-09-19T10:27:50;1.03;;;0.67;;
15393;SDS011;7795;47.986;11.868;2023-09-19T10:30:20;0.73;;;0.60;;
15393;SDS011;7795;47.986;11.868;2023-09-19T10:32:47;2.47;;;0.70;;
15393;SDS011;7795;47.986;11.868;2023-09-19T10:35:21;1.40;;;0.60;;
15393;SDS011;7795;47.986;11.868;2023-09-19T10:37:49;0.60;;;0.60;;
15393;SDS011;7795;47.986;11.868;2023-09-19T10:40:18;1.08;;;0.55;;
15393;SDS011;7795;47.986;11.868;2023-09-19T10:42:45;2.88;;;0.90;;
15393;SDS011;7795;47.986;11.868;2023-09-19T10:45:13;1.40;;;0.93;;
15393;SDS011;7795;47.986;11.868;2023-09-19T10:47:46;1.67;;;1.57;;
15393;SDS011;7795;47.986;11.868;2023-09-19T10:50:17;2.30;;;1.80;;
15393;SDS011;7795;47.986;11.868;2023-09-19T10:52:47;3.97;;;1.13;;
15393;SDS011;7795;47.986;11.868;2023-09-19T10:55:15;2.05;;;0.90;;
15393;SDS011;7795;47.986;11.868;2023-09-19T10:57:44;3.38;;;0.90;;
15393;SDS011;7795;47.986;11.868;2023-09-19T11:00:10;1.38;;;0.90;;
15393;SDS011;7795;47.986;11.868;2023-09-19T11:03:19;1.90;;;0.70;;
15393;SDS011;7795;47.986;11.868;2023-09-19T11:06:00;2.40;;;0.90;;
15393;SDS011;7795;47.986;11.868;2023-09-19T11:08:30;1.00;;;0.80;;
15393;SDS011;7795;47.986;11.868;2023-09-19T11:10:57;1.75;;;0.90;;
15393;SDS011;7795;47.986;11.868;2023-09-19T11:13:24;1.08;;;0.88;;
15393;SDS011;7795;47.986;11.868;2023-09-19T11:18:52;1.15;;;0.60;;
15393;SDS011;7795;47.986;11.868;2023-09-19T11:27:08;1.13;;;0.90;;
15393;SDS011;7795;47.986;11.868;2023-09-19T11:29:39;0.77;;;0.60;;
15393;SDS011;7795;47.986;11.868;2023-09-19T11:32:05;1.38;;;0.80;;
15393;SDS011;7795;47.986;11.868;2023-09-19T11:34:48;1.33;;;0.85;;
15393;SDS011;7795;47.986;11.868;2023-09-19T11:40:36;1.23;;;0.85;;
15393;SDS011;7795;47.986;11.868;2023-09-19T11:46:06;1.48;;;0.90;;
15393;SDS011;7795;47.986;11.868;2023-09-19T11:48:32;0.80;;;0.80;;
15393;SDS011;7795;47.986;11.868;2023-09-19T11:51:01;0.95;;;0.65;;
15393;SDS011;7795;47.986;11.868;2023-09-19T11:53:36;3.53;;;1.80;;
15393;SDS011;7795;47.986;11.868;2023-09-19T11:56:05;1.27;;;1.00;;
15393;SDS011;7795;47.986;11.868;2023-09-19T11:58:35;0.82;;;0.82;;
15393;SDS011;7795;47.986;11.868;2023-09-19T12:01:02;1.10;;;0.70;;
15393;SDS011;7795;47.986;11.868;2023-09-19T12:03:33;0.73;;;0.70;;
15393;SDS011;7795;47.986;11.868;2023-09-19T12:06:11;1.00;;;0.70;;
15393;SDS011;7795;47.986;11.868;2023-09-19T12:08:39;0.77;;;0.60;;
15393;SDS011;7795;47.986;11.868;2023-09-19T12:11:11;3.47;;;1.00;;
15393;SDS011;7795;47.986;11.868;2023-09-19T12:13:41;1.08;;;0.60;;
15393;SDS011;7795;47.986;11.868;2023-09-19T12:16:11;2.95;;;0.70;;
15393;SDS011;7795;47.986;11.868;2023-09-19T12:18:41;0.65;;;0.65;;
15393;SDS011;7795;47.986;11.868;2023-09-19T12:21:22;1.02;;;0.88;;
15393;SDS011;7795;47.986;11.868;2023-09-19T12:23:56;2.17;;;0.77;;
15393;SDS011;7795;47.986;11.868;2023-09-19T12:26:38;2.78;;;0.85;;
15393;SDS011;7795;47.986;11.868;2023-09-19T12:29:10;1.20;;;0.80;;
15393;SDS011;7795;47.986;11.868;2023-09-19T12:31:47;1.40;;;0.60;;
15393;SDS011;7795;47.986;11.868;2023-09-19T12:34:16;1.95;;;0.80;;
15393;SDS011;7795;47.986;11.868;2023-09-19T12:36:46;1.50;;;0.82;;
15393;SDS011;7795;47.986;11.868;2023-09-19T12:39:21;2.00;;;0.77;;
15393;SDS011;7795;47.986;11.868;2023-09-19T12:41:48;1.75;;;0.80;;
15393;SDS011;7795;47.986;11.868;2023-09-19T12:44:15;1.05;;;0.95;;
15393;SDS011;7795;47.986;11.868;2023-09-19T12:46:43;0.88;;;0.80;;
15393;SDS011;7795;47.986;11.868;2023-09-19T12:49:16;0.70;;;0.65;;
15393;SDS011;7795;47.986;11.868;2023-09-19T12:51:43;0.90;;;0.70;;
15393;SDS011;7795;47.986;11.868;2023-09-19T12:54:10;1.77;;;0.60;;
15393;SDS011;7795;47.986;11.868;2023-09-19T12:56:39;1.77;;;0.85;;
15393;SDS011;7795;47.986;11.868;2023-09-19T12:59:13;0.50;;;0.50;;
15393;SDS011;7795;47.986;11.868;2023-09-19T13:01:40;1.30;;;0.73;;
15393;SDS011;7795;47.986;11.868;2023-09-19T13:04:10;0.70;;;0.70;;
15393;SDS011;7795;47.986;11.868;2023-09-19T13:06:51;2.10;;;0.70;;
15393;SDS011;7795;47.986;11.868;2023-09-19T13:09:19;0.82;;;0.55;;
15393;SDS011;7795;47.986;11.868;2023-09-19T13:11:46;1.00;;;0.70;;
15393;SDS011;7795;47.986;11.868;2023-09-19T13:14:15;1.20;;;0.90;;
15393;SDS011;7795;47.986;11.868;2023-09-19T13:16:53;3.25;;;0.82;;
15393;SDS011;7795;47.986;11.868;2023-09-19T13:19:34;1.80;;;0.73;;
15393;SDS011;7795;47.986;11.868;2023-09-19T13:22:02;1.10;;;0.73;;
15393;SDS011;7795;47.986;11.868;2023-09-19T13:24:29;0.93;;;0.60;;
15393;SDS011;7795;47.986;11.868;2023-09-19T13:26:56;0.77;;;0.60;;
15393;SDS011;7795;47.986;11.868;2023-09-19T13:29:22;1.10;;;0.57;;
15393;SDS011;7795;47.986;11.868;2023-09-19T13:31:47;0.50;;;0.43;;
15393;SDS011;7795;47.986;11.868;2023-09-19T13:34:14;0.93;;;0.70;;
15393;SDS011;7795;47.986;11.868;2023-09-19T13:36:42;3.90;;;0.60;;
15393;SDS011;7795;47.986;11.868;2023-09-19T13:39:08;0.88;;;0.60;;
15393;SDS011;7795;47.986;11.868;2023-09-19T13:41:39;0.65;;;0.65;;
15393;SDS011;7795;47.986;11.868;2023-09-19T13:44:05;0.70;;;0.50;;
15393;SDS011;7795;47.986;11.868;2023-09-19T13:46:31;0.77;;;0.50;;
15393;SDS011;7795;47.986;11.868;2023-09-19T13:48:58;1.15;;;0.50;;
15393;SDS011;7795;47.986;11.868;2023-09-19T13:51:25;1.02;;;0.50;;
15393;SDS011;7795;47.986;11.868;2023-09-19T13:53:51;1.45;;;0.70;;
15393;SDS011;7795;47.986;11.868;2023-09-19T13:56:16;0.77;;;0.50;;
15393;SDS011;7795;47.986;11.868;2023-09-19T13:58:44;1.45;;;0.52;;
15393;SDS011;7795;47.986;11.868;2023-09-19T14:01:09;1.55;;;0.50;;
15393;SDS011;7795;47.986;11.868;2023-09-19T14:03:37;0.55;;;0.55;;
15393;SDS011;7795;47.986;11.868;2023-09-19T14:06:03;0.93;;;0.80;;
15393;SDS011;7795;47.986;11.868;2023-09-19T14:08:29;0.57;;;0.50;;
15393;SDS011;7795;47.986;11.868;2023-09-19T14:10:55;0.75;;;0.50;;
15393;SDS011;7795;47.986;11.868;2023-09-19T14:13:21;0.63;;;0.40;;
15393;SDS011;7795;47.986;11.868;2023-09-19T14:15:48;0.80;;;0.70;;
15393;SDS011;7795;47.986;11.868;2023-09-19T14:18:14;1.05;;;0.50;;
15393;SDS011;7795;47.986;11.868;2023-09-19T14:20:40;1.00;;;0.52;;
15393;SDS011;7795;47.986;11.868;2023-09-19T14:23:06;0.88;;;0.77;;
15393;SDS011;7795;47.986;11.868;2023-09-19T14:25:33;2.35;;;0.70;;
15393;SDS011;7795;47.986;11.868;2023-09-19T14:27:59;1.15;;;0.60;;
15393;SDS011;7795;47.986;11.868;2023-09-19T14:30:25;0.93;;;0.80;;
15393;SDS011;7795;47.986;11.868;2023-09-19T14:32:54;1.45;;;0.75;;
15393;SDS011;7795;47.986;11.868;2023-09-19T14:35:19;2.00;;;0.88;;
15393;SDS011;7795;47.986;11.868;2023-09-19T14:37:48;1.05;;;0.60;;
15393;SDS011;7795;47.986;11.868;2023-09-19T14:40:14;0.80;;;0.70;;
15393;SDS011;7795;47.986;11.868;2023-09-19T14:42:43;1.80;;;0.75;;
15393;SDS011;7795;47.986;11.868;2023-09-19T14:45:10;0.80;;;0.50;;
15393;SDS011;7795;47.986;11.868;2023-09-19T14:47:36;1.40;;;0.70;;
15393;SDS011;7795;47.986;11.868;2023-09-19T14:50:04;1.30;;;0.68;;
15393;SDS011;7795;47.986;11.868;2023-09-19T14:52:31;1.83;;;0.70;;
15393;SDS011;7795;47.986;11.868;2023-09-19T14:54:58;1.38;;;0.50;;
15393;SDS011;7795;47.986;11.868;2023-09-19T14:57:24;1.02;;;0.63;;
15393;SDS011;7795;47.986;11.868;2023-09-19T14:59:51;0.60;;;0.60;;
15393;SDS011;7795;47.986;11.868;2023-09-19T15:02:17;2.38;;;1.00;;
15393;SDS011;7795;47.986;11.868;2023-09-19T15:04:42;0.70;;;0.60;;
15393;SDS011;7795;47.986;11.868;2023-09-19T15:07:11;1.38;;;0.65;;
15393;SDS011;7795;47.986;11.868;2023-09-19T15:09:37;0.77;;;0.65;;
15393;SDS011;7795;47.986;11.868;2023-09-19T15:12:03;0.88;;;0.55;;
15393;SDS011;7795;47.986;11.868;2023-09-19T15:14:29;1.15;;;0.70;;